Time;durP1;ratioP1;P1;durP2;ratioP2;P2;SDS_P1;SDS_P2;PMS_P1;PMS_P2;Temp;Humidity;BMP_temperature;BMP_pressure;BME280_temperature;BME280_humidity;BME280_pressure;Samples;Min_cycle;Max_cycle;Signal;HPM_P1;HPM_P2
2022/03/10 00:01:50;;;;;;;12.02;6.07;;;4.90;46.50;;;;;;4954657;28;20035;-73
2022/03/10 00:04:16;;;;;;;12.80;6.50;;;4.90;46.60;;;;;;4954625;28;20485;-71
2022/03/10 00:06:42;;;;;;;11.23;6.72;;;4.90;46.60;;;;;;4954479;28;20035;-72
2022/03/10 00:09:08;;;;;;;10.13;5.85;;;4.90;46.70;;;;;;4954066;28;20038;-72
2022/03/10 00:11:33;;;;;;;11.82;6.40;;;4.80;46.70;;;;;;4969312;28;20027;-73
2022/03/10 00:13:59;;;;;;;8.75;5.43;;;4.80;46.80;;;;;;4954498;28;20051;-71
2022/03/10 00:16:25;;;;;;;12.40;6.50;;;4.80;47.10;;;;;;4957206;28;20023;-73
2022/03/10 00:18:51;;;;;;;11.10;6.38;;;4.70;47.10;;;;;;4972161;28;20436;-72
2022/03/10 00:21:17;;;;;;;10.63;6.47;;;4.70;47.10;;;;;;4957966;28;20498;-73
2022/03/10 00:23:42;;;;;;;12.00;6.20;;;4.70;47.20;;;;;;4957972;28;20042;-72
2022/03/10 00:26:08;;;;;;;12.68;5.85;;;4.70;47.10;;;;;;4958028;28;20081;-71
2022/03/10 00:28:34;;;;;;;10.73;6.07;;;4.70;47.20;;;;;;4957863;28;20035;-72
2022/03/10 00:31:00;;;;;;;10.45;5.85;;;4.60;47.40;;;;;;4973032;28;20087;-73
2022/03/10 00:33:26;;;;;;;13.90;6.25;;;4.60;47.50;;;;;;4972232;28;20106;-72
2022/03/10 00:35:52;;;;;;;9.07;5.43;;;4.60;47.50;;;;;;4957713;29;20094;-70
2022/03/10 00:38:18;;;;;;;13.30;6.30;;;4.60;47.30;;;;;;4957724;28;20051;-71
2022/03/10 00:40:45;;;;;;;8.50;5.18;;;4.50;47.30;;;;;;4957703;28;20033;-72
2022/03/10 00:43:14;;;;;;;12.85;5.97;;;4.50;47.30;;;;;;4957689;28;20046;-72
2022/03/10 00:45:40;;;;;;;12.73;7.00;;;4.50;47.40;;;;;;4972416;28;20035;-71
2022/03/10 00:48:07;;;;;;;10.07;6.13;;;4.50;47.60;;;;;;4957557;28;20032;-70
2022/03/10 00:50:33;;;;;;;14.27;6.72;;;4.50;47.70;;;;;;4972196;28;20433;-73
2022/03/10 00:53:01;;;;;;;10.15;6.25;;;4.50;47.70;;;;;;4957530;28;20027;-70
2022/03/10 00:55:27;;;;;;;12.55;6.50;;;4.40;47.90;;;;;;4971912;28;20605;-72
2022/03/10 00:57:53;;;;;;;14.10;6.78;;;4.40;47.60;;;;;;4971991;28;20080;-72
2022/03/10 01:00:21;;;;;;;10.02;5.70;;;4.40;47.70;;;;;;4972193;28;20039;-72
2022/03/10 01:02:47;;;;;;;11.15;6.05;;;4.40;47.80;;;;;;4957258;28;20023;-70
2022/03/10 01:05:13;;;;;;;12.25;6.07;;;4.40;47.80;;;;;;4957135;29;20042;-71
2022/03/10 01:07:39;;;;;;;10.50;5.70;;;4.40;48.00;;;;;;4957204;28;20023;-72
2022/03/10 01:10:06;;;;;;;16.23;8.57;;;4.30;48.00;;;;;;4971425;28;20039;-72
2022/03/10 01:12:32;;;;;;;52.97;28.60;;;4.30;48.20;;;;;;4957040;28;20031;-72
2022/03/10 01:14:58;;;;;;;36.35;19.75;;;4.30;48.50;;;;;;4971916;28;20035;-73
2022/03/10 01:17:24;;;;;;;23.02;11.93;;;4.20;48.60;;;;;;4957075;28;20023;-72
2022/03/10 01:19:50;;;;;;;14.93;8.45;;;4.20;48.40;;;;;;4956952;29;20034;-71
2022/03/10 01:22:16;;;;;;;13.98;7.95;;;4.20;48.50;;;;;;4956210;28;20027;-71
2022/03/10 01:24:42;;;;;;;11.15;6.28;;;4.20;48.60;;;;;;4971687;28;20138;-72
2022/03/10 01:27:09;;;;;;;10.43;6.22;;;4.20;48.50;;;;;;4956269;28;20038;-72
2022/03/10 01:29:35;;;;;;;12.55;6.88;;;4.20;48.50;;;;;;4971599;28;20030;-73
2022/03/10 01:32:01;;;;;;;13.35;6.65;;;4.20;48.50;;;;;;4956778;28;20027;-73
2022/03/10 01:34:27;;;;;;;9.95;5.57;;;4.20;48.60;;;;;;4956736;28;20426;-72
2022/03/10 01:36:53;;;;;;;9.93;5.68;;;4.10;48.40;;;;;;4956589;28;20098;-72
2022/03/10 01:39:19;;;;;;;13.75;6.43;;;4.10;48.50;;;;;;4956874;28;20067;-71
2022/03/10 01:41:45;;;;;;;16.33;8.10;;;4.10;48.70;;;;;;4956602;28;20051;-71
2022/03/10 01:44:11;;;;;;;9.57;5.45;;;4.10;48.80;;;;;;4956506;28;20023;-70
2022/03/10 01:46:38;;;;;;;16.52;6.78;;;4.10;48.90;;;;;;4956491;28;20381;-70
2022/03/10 01:49:06;;;;;;;10.65;6.05;;;4.10;48.90;;;;;;4956339;28;20038;-72
2022/03/10 01:51:36;;;;;;;9.60;6.15;;;4.00;48.90;;;;;;4956292;28;20027;-70
2022/03/10 01:54:03;;;;;;;14.65;5.82;;;4.00;48.80;;;;;;4956300;28;20019;-72
2022/03/10 01:56:30;;;;;;;12.40;5.50;;;4.00;48.80;;;;;;4970740;28;20027;-70
2022/03/10 01:58:56;;;;;;;14.93;6.97;;;4.00;48.80;;;;;;4956108;29;20133;-70
2022/03/10 02:01:22;;;;;;;15.93;7.70;;;4.00;49.10;;;;;;4956150;28;20115;-70
2022/03/10 02:03:48;;;;;;;11.25;6.35;;;4.00;49.40;;;;;;4955976;28;20055;-73
2022/03/10 02:06:14;;;;;;;9.30;5.50;;;4.00;49.20;;;;;;4970805;28;20069;-73
2022/03/10 02:11:27;;;;;;;12.90;6.88;;;3.90;49.00;;;;;;4956259;29;20389;-71
2022/03/10 02:13:52;;;;;;;13.13;7.18;;;3.90;49.00;;;;;;4955833;28;20019;-73
2022/03/10 02:19:03;;;;;;;10.85;6.47;;;3.90;49.40;;;;;;4955853;29;20054;-72
2022/03/10 02:21:29;;;;;;;12.95;6.90;;;3.80;49.20;;;;;;4955206;28;20054;-70
2022/03/10 02:23:55;;;;;;;13.63;7.20;;;3.90;49.40;;;;;;4956116;28;20086;-71
2022/03/10 02:26:21;;;;;;;13.15;6.95;;;3.80;49.40;;;;;;4955223;28;20031;-72
2022/03/10 02:28:49;;;;;;;15.90;7.38;;;3.80;49.40;;;;;;4951033;29;20032;-71
2022/03/10 02:31:15;;;;;;;17.50;7.95;;;3.80;49.50;;;;;;4945795;29;20098;-70
2022/03/10 02:33:41;;;;;;;13.27;6.78;;;3.80;49.80;;;;;;4955574;29;20035;-71
2022/03/10 02:36:07;;;;;;;14.32;7.57;;;3.80;49.80;;;;;;4955505;28;20020;-72
2022/03/10 02:38:34;;;;;;;11.48;6.35;;;3.80;49.80;;;;;;4954713;28;20023;-72
2022/03/10 02:40:59;;;;;;;14.30;6.32;;;3.70;49.70;;;;;;4955434;28;20034;-73
2022/03/10 02:43:25;;;;;;;11.10;6.63;;;3.70;49.80;;;;;;4970312;28;20027;-71
2022/03/10 02:45:52;;;;;;;15.25;7.60;;;3.70;49.70;;;;;;4955136;28;20050;-72
2022/03/10 02:48:18;;;;;;;17.15;8.18;;;3.70;49.70;;;;;;4955110;28;20034;-73
2022/03/10 02:50:45;;;;;;;16.02;8.13;;;3.70;49.80;;;;;;4955446;28;20023;-71
2022/03/10 02:53:11;;;;;;;17.83;8.20;;;3.70;50.00;;;;;;4955256;28;20026;-72
2022/03/10 02:55:40;;;;;;;14.82;8.38;;;3.60;50.00;;;;;;4955240;28;20023;-72
2022/03/10 02:58:06;;;;;;;15.20;7.28;;;3.60;50.20;;;;;;4955014;28;20102;-73
2022/03/10 03:00:32;;;;;;;21.30;9.43;;;3.60;50.20;;;;;;4969989;28;20031;-70
2022/03/10 03:02:58;;;;;;;17.15;7.93;;;3.60;50.30;;;;;;4955048;28;20023;-71
2022/03/10 03:05:24;;;;;;;16.80;7.97;;;3.60;50.30;;;;;;4954594;28;20496;-73
2022/03/10 03:07:50;;;;;;;16.42;8.50;;;3.60;50.20;;;;;;4955096;28;20039;-73
2022/03/10 03:10:16;;;;;;;16.05;8.35;;;3.60;50.20;;;;;;4954966;28;20027;-72
2022/03/10 03:12:50;;;;;;;15.98;8.13;;;3.50;50.20;;;;;;4955076;28;20070;-70
2022/03/10 03:15:17;;;;;;;14.32;7.97;;;3.50;50.30;;;;;;4955043;28;20030;-70
2022/03/10 03:17:43;;;;;;;24.67;8.88;;;3.50;50.20;;;;;;4969770;28;20385;-73
2022/03/10 03:20:14;;;;;;;19.73;7.32;;;3.50;50.30;;;;;;4954961;28;20038;-71
2022/03/10 03:22:44;;;;;;;17.95;8.68;;;3.50;50.30;;;;;;4954262;28;20566;-71
2022/03/10 03:25:14;;;;;;;19.13;8.38;;;3.50;50.40;;;;;;4954917;28;20031;-72
2022/03/10 03:27:43;;;;;;;15.43;8.75;;;3.50;50.40;;;;;;4954885;28;20118;-71
2022/03/10 03:30:09;;;;;;;18.58;9.13;;;3.50;50.50;;;;;;4954816;28;20024;-72
2022/03/10 03:32:35;;;;;;;19.83;8.90;;;3.40;50.50;;;;;;4954288;28;20111;-72
2022/03/10 03:35:01;;;;;;;21.70;9.23;;;3.40;50.70;;;;;;4954608;28;20507;-73
2022/03/10 03:37:27;;;;;;;15.60;8.05;;;3.40;50.70;;;;;;4954760;28;20107;-71
2022/03/10 03:39:53;;;;;;;19.13;9.00;;;3.40;50.70;;;;;;4954347;28;20110;-70
2022/03/10 03:42:19;;;;;;;19.40;8.80;;;3.40;50.70;;;;;;4969316;28;20027;-73
2022/03/10 03:44:45;;;;;;;17.05;8.75;;;3.40;50.80;;;;;;4969509;28;20038;-72
2022/03/10 03:47:11;;;;;;;19.85;9.07;;;3.40;50.80;;;;;;4954399;28;20063;-72
2022/03/10 03:49:37;;;;;;;19.13;9.07;;;3.40;50.80;;;;;;4969343;28;20070;-70
2022/03/10 03:52:03;;;;;;;19.55;9.68;;;3.30;50.80;;;;;;4957296;29;20385;-72
2022/03/10 03:54:29;;;;;;;18.15;9.43;;;3.30;50.80;;;;;;4957843;28;20430;-72
2022/03/10 03:56:55;;;;;;;21.15;9.38;;;3.40;51.00;;;;;;4958202;28;20034;-71
2022/03/10 03:59:21;;;;;;;22.85;9.00;;;3.30;51.00;;;;;;4958386;28;20027;-72
2022/03/10 04:01:47;;;;;;;17.73;8.35;;;3.30;51.00;;;;;;4958194;29;20027;-71
2022/03/10 04:04:13;;;;;;;18.85;10.02;;;3.30;50.90;;;;;;4958346;28;20510;-71
2022/03/10 04:06:38;;;;;;;21.75;10.10;;;3.30;51.00;;;;;;4958214;28;20035;-71
2022/03/10 04:09:04;;;;;;;18.27;9.68;;;3.30;51.20;;;;;;4958168;28;20106;-71
2022/03/10 04:11:30;;;;;;;20.30;10.80;;;3.30;51.20;;;;;;4972995;28;20038;-70
2022/03/10 04:13:56;;;;;;;20.27;9.18;;;3.20;51.40;;;;;;4957637;29;20031;-70
2022/03/10 04:16:22;;;;;;;21.67;8.88;;;3.20;51.40;;;;;;4957888;29;20060;-71
2022/03/10 04:18:48;;;;;;;27.88;9.60;;;3.30;51.30;;;;;;4972833;28;20035;-70
2022/03/10 04:21:14;;;;;;;15.80;8.70;;;3.20;51.30;;;;;;4957392;29;20043;-71
2022/03/10 04:23:40;;;;;;;20.73;8.38;;;3.20;51.40;;;;;;4957915;28;20102;-71
2022/03/10 04:26:05;;;;;;;21.45;9.77;;;3.20;51.40;;;;;;4957944;28;20032;-71
2022/03/10 04:28:31;;;;;;;17.40;8.77;;;3.20;51.30;;;;;;4972650;28;20034;-71
2022/03/10 04:30:57;;;;;;;18.83;9.02;;;3.20;51.30;;;;;;4957738;28;20504;-71
2022/03/10 04:33:23;;;;;;;24.27;9.15;;;3.20;51.30;;;;;;4957434;28;20067;-71
2022/03/10 04:35:53;;;;;;;15.60;9.02;;;3.20;51.30;;;;;;4956364;29;20030;-72
2022/03/10 04:38:19;;;;;;;24.33;10.05;;;3.20;51.40;;;;;;4972477;28;20110;-72
2022/03/10 04:40:46;;;;;;;20.33;10.15;;;3.10;51.30;;;;;;4957630;28;20031;-72
2022/03/10 04:43:12;;;;;;;24.10;10.38;;;3.20;51.60;;;;;;4957261;29;20024;-72
2022/03/10 04:45:38;;;;;;;23.02;10.85;;;3.20;51.90;;;;;;4955713;28;20038;-72
2022/03/10 04:48:06;;;;;;;18.27;8.80;;;3.20;51.90;;;;;;4955485;29;20032;-70
2022/03/10 04:50:33;;;;;;;17.10;8.77;;;3.20;51.90;;;;;;4954723;28;20477;-71
2022/03/10 04:52:58;;;;;;;26.35;9.27;;;3.10;51.80;;;;;;4955198;28;20055;-70
2022/03/10 04:55:24;;;;;;;17.60;9.35;;;3.10;51.80;;;;;;4955436;28;20469;-71
2022/03/10 04:57:51;;;;;;;22.67;9.15;;;3.10;51.90;;;;;;4969458;28;20047;-71
2022/03/10 05:00:18;;;;;;;16.77;8.77;;;3.10;51.90;;;;;;4954043;29;20054;-71
2022/03/10 05:02:49;;;;;;;16.58;8.70;;;3.10;51.80;;;;;;4956102;28;20047;-71
2022/03/10 05:05:17;;;;;;;17.20;9.73;;;3.10;51.70;;;;;;4956439;28;20503;-73
2022/03/10 05:07:43;;;;;;;20.08;10.23;;;3.10;51.80;;;;;;4956995;28;20027;-70
2022/03/10 05:10:11;;;;;;;20.83;9.90;;;3.10;51.80;;;;;;4957009;28;20035;-70
2022/03/10 05:12:44;;;;;;;20.92;10.43;;;3.10;51.90;;;;;;4971792;28;20026;-71
2022/03/10 05:15:10;;;;;;;18.98;9.38;;;3.10;52.10;;;;;;4957004;29;20025;-71
2022/03/10 05:17:36;;;;;;;16.33;8.75;;;3.10;51.90;;;;;;4956918;28;20035;-71
2022/03/10 05:20:02;;;;;;;21.38;8.85;;;3.10;51.90;;;;;;4956848;29;20030;-71
2022/03/10 05:22:45;;;;;;;17.38;9.85;;;3.00;51.80;;;;;;4970952;28;20468;-71
2022/03/10 05:25:12;;;;;;;23.55;9.27;;;3.00;52.00;;;;;;4956690;28;20030;-72
2022/03/10 05:27:38;;;;;;;23.17;10.02;;;3.00;51.80;;;;;;4956193;28;20034;-72
2022/03/10 05:30:06;;;;;;;20.42;10.23;;;3.00;52.00;;;;;;4956527;29;20489;-71
2022/03/10 05:32:31;;;;;;;20.00;9.05;;;3.00;52.10;;;;;;4956573;29;20022;-72
2022/03/10 05:34:57;;;;;;;18.38;9.80;;;3.10;52.10;;;;;;4956505;29;20118;-73
2022/03/10 05:37:24;;;;;;;18.17;9.65;;;3.00;52.10;;;;;;4956502;28;20031;-72
2022/03/10 05:39:50;;;;;;;22.27;10.38;;;3.00;52.80;;;;;;4954699;28;20149;-71
2022/03/10 05:42:16;;;;;;;24.63;10.75;;;3.00;52.30;;;;;;4955017;28;20039;-71
2022/03/10 05:44:42;;;;;;;21.08;10.93;;;3.00;52.40;;;;;;4955526;28;20513;-72
2022/03/10 05:47:09;;;;;;;23.73;10.27;;;3.00;52.50;;;;;;4956375;28;20090;-72
2022/03/10 05:49:38;;;;;;;18.33;9.52;;;3.00;52.50;;;;;;4970739;28;20508;-70
2022/03/10 05:52:05;;;;;;;20.77;8.68;;;3.10;52.50;;;;;;4956274;28;20027;-70
2022/03/10 05:54:32;;;;;;;16.75;9.57;;;3.10;52.50;;;;;;4971062;28;20051;-72
2022/03/10 05:56:58;;;;;;;19.98;10.13;;;3.10;52.60;;;;;;4970811;28;20027;-72
2022/03/10 05:59:24;;;;;;;21.08;10.15;;;3.10;52.60;;;;;;4970089;28;20131;-70
2022/03/10 06:01:49;;;;;;;30.27;11.25;;;3.10;52.70;;;;;;4970940;28;20039;-71
2022/03/10 06:04:16;;;;;;;20.30;10.75;;;3.20;53.10;;;;;;4956028;28;20090;-70
2022/03/10 06:06:45;;;;;;;24.33;10.43;;;3.20;53.10;;;;;;4955843;28;20038;-72
2022/03/10 06:09:11;;;;;;;44.13;14.25;;;3.30;53.10;;;;;;4955897;28;20465;-70
2022/03/10 06:11:37;;;;;;;23.23;11.35;;;3.30;53.40;;;;;;4955984;28;20512;-72
2022/03/10 06:14:03;;;;;;;22.33;11.07;;;3.40;53.50;;;;;;4954400;28;20465;-71
2022/03/10 06:16:29;;;;;;;22.77;10.80;;;3.40;53.50;;;;;;4955847;28;20050;-72
2022/03/10 06:18:55;;;;;;;19.30;10.10;;;3.50;53.50;;;;;;4970259;28;20023;-72
2022/03/10 06:21:22;;;;;;;22.45;10.50;;;3.50;53.40;;;;;;4970450;28;20027;-73
2022/03/10 06:23:48;;;;;;;21.25;11.35;;;3.60;53.50;;;;;;4955704;28;20016;-70
2022/03/10 06:26:14;;;;;;;25.10;12.15;;;3.60;53.60;;;;;;4955540;29;20381;-70
2022/03/10 06:28:40;;;;;;;33.83;11.93;;;3.70;53.70;;;;;;4955627;29;20031;-72
2022/03/10 06:31:09;;;;;;;21.60;10.65;;;3.80;53.80;;;;;;4955514;29;20114;-72
2022/03/10 06:33:36;;;;;;;27.23;12.15;;;3.90;53.80;;;;;;4955524;29;20031;-72
2022/03/10 06:36:03;;;;;;;24.60;11.77;;;3.90;53.90;;;;;;4955519;29;20078;-70
2022/03/10 06:38:29;;;;;;;25.27;12.43;;;4.00;54.20;;;;;;4969961;28;20390;-73
2022/03/10 06:40:55;;;;;;;27.80;12.75;;;4.00;54.30;;;;;;4955346;28;20039;-73
2022/03/10 06:43:20;;;;;;;20.95;10.68;;;4.10;54.20;;;;;;4955328;28;20444;-71
2022/03/10 06:45:46;;;;;;;29.77;12.52;;;4.20;54.20;;;;;;4955375;28;20068;-73
2022/03/10 06:48:12;;;;;;;26.02;10.85;;;4.30;54.10;;;;;;4955253;28;20019;-71
2022/03/10 06:50:38;;;;;;;21.02;10.60;;;4.30;54.10;;;;;;4955161;28;20389;-72
2022/03/10 06:53:05;;;;;;;20.60;11.10;;;4.40;54.00;;;;;;4955229;28;20019;-71
2022/03/10 06:55:30;;;;;;;25.98;12.88;;;4.50;54.00;;;;;;4966695;28;20023;-72
2022/03/10 06:57:56;;;;;;;25.50;12.25;;;4.50;54.20;;;;;;4947982;28;20055;-70
2022/03/10 07:00:23;;;;;;;36.58;13.73;;;4.60;54.30;;;;;;4960860;28;20103;-71
2022/03/10 07:02:52;;;;;;;25.73;12.63;;;4.70;54.30;;;;;;4954848;28;20039;-71
2022/03/10 07:05:18;;;;;;;23.83;11.65;;;4.70;54.20;;;;;;4953969;28;20027;-72
2022/03/10 07:07:44;;;;;;;28.63;11.95;;;4.80;54.10;;;;;;4955482;28;20033;-70
2022/03/10 07:10:10;;;;;;;21.08;10.50;;;4.90;54.10;;;;;;4962380;28;20031;-73
2022/03/10 07:12:38;;;;;;;23.95;10.93;;;5.00;53.90;;;;;;4955053;28;20086;-71
2022/03/10 07:15:05;;;;;;;21.17;10.50;;;5.00;53.70;;;;;;4955968;28;20039;-72
2022/03/10 07:17:31;;;;;;;23.17;11.30;;;5.10;53.50;;;;;;4944010;28;20107;-72
2022/03/10 07:19:57;;;;;;;22.90;11.07;;;5.20;53.40;;;;;;4954833;28;20066;-71
2022/03/10 07:22:23;;;;;;;26.20;12.27;;;5.30;53.40;;;;;;4950568;28;20027;-73
2022/03/10 07:24:49;;;;;;;29.40;12.60;;;5.40;53.40;;;;;;4969046;28;20393;-73
2022/03/10 07:27:15;;;;;;;23.73;12.85;;;5.40;53.40;;;;;;4954883;29;20027;-71
2022/03/10 07:29:41;;;;;;;24.77;12.80;;;5.50;53.50;;;;;;4969531;28;20110;-72
2022/03/10 07:32:07;;;;;;;23.27;12.82;;;5.60;53.60;;;;;;4954847;29;20426;-73
2022/03/10 07:34:34;;;;;;;29.95;13.20;;;5.70;53.70;;;;;;4968094;28;20393;-71
2022/03/10 07:37:00;;;;;;;28.48;12.95;;;5.70;53.50;;;;;;4954382;29;20042;-71
2022/03/10 07:39:25;;;;;;;28.05;13.55;;;5.80;53.50;;;;;;4955197;28;20035;-71
2022/03/10 07:41:51;;;;;;;28.23;13.82;;;5.90;53.40;;;;;;4968598;28;20396;-71
2022/03/10 07:44:17;;;;;;;23.40;12.80;;;5.90;53.30;;;;;;4961160;28;20027;-70
2022/03/10 07:46:43;;;;;;;24.55;12.13;;;6.00;53.20;;;;;;4953459;29;20031;-72
2022/03/10 07:49:08;;;;;;;30.67;12.77;;;6.10;53.10;;;;;;4952963;28;20103;-71
2022/03/10 07:51:35;;;;;;;26.08;11.88;;;6.20;53.00;;;;;;4969485;28;20058;-72
2022/03/10 07:54:01;;;;;;;36.28;14.00;;;6.30;52.70;;;;;;4954294;28;20023;-71
2022/03/10 07:56:27;;;;;;;29.63;13.55;;;6.40;52.50;;;;;;4954540;28;20030;-73
2022/03/10 07:58:52;;;;;;;26.88;13.60;;;6.50;52.30;;;;;;4969363;28;20055;-72
2022/03/10 08:01:18;;;;;;;39.58;14.98;;;6.50;52.10;;;;;;4953325;28;20465;-72
2022/03/10 08:03:47;;;;;;;38.88;17.90;;;6.60;52.40;;;;;;4954101;28;20030;-70
2022/03/10 08:06:13;;;;;;;38.55;17.58;;;6.70;51.70;;;;;;4954421;28;20019;-72
2022/03/10 08:08:39;;;;;;;45.85;19.85;;;6.80;51.60;;;;;;4954423;28;20089;-72
2022/03/10 08:11:06;;;;;;;69.53;22.58;;;6.90;51.40;;;;;;4953133;29;20023;-72
2022/03/10 08:13:32;;;;;;;46.63;20.25;;;6.90;51.30;;;;;;4954474;28;20505;-72
2022/03/10 08:15:59;;;;;;;59.78;22.30;;;7.00;51.20;;;;;;4954021;28;20158;-72
2022/03/10 08:18:27;;;;;;;56.42;21.20;;;7.10;51.10;;;;;;4954518;28;20055;-72
2022/03/10 08:20:54;;;;;;;57.65;22.73;;;7.20;51.00;;;;;;4954253;29;20024;-72
2022/03/10 08:23:20;;;;;;;52.97;19.88;;;7.20;50.80;;;;;;4954439;28;20034;-71
2022/03/10 08:25:46;;;;;;;53.90;21.92;;;7.30;50.80;;;;;;4945616;28;20030;-74
2022/03/10 08:28:12;;;;;;;65.55;22.65;;;7.40;50.70;;;;;;4964414;28;20473;-73
2022/03/10 08:30:38;;;;;;;47.47;20.73;;;7.50;50.70;;;;;;4964003;28;20035;-71
2022/03/10 08:33:04;;;;;;;52.78;21.98;;;7.50;50.70;;;;;;4967844;28;20055;-72
2022/03/10 08:35:31;;;;;;;42.70;20.10;;;7.70;50.60;;;;;;4958625;28;20027;-71
2022/03/10 08:37:58;;;;;;;56.42;21.52;;;7.70;50.40;;;;;;4958947;28;20035;-71
2022/03/10 08:40:24;;;;;;;65.53;23.77;;;7.80;50.20;;;;;;4964697;28;20027;-73
2022/03/10 08:42:51;;;;;;;54.33;22.38;;;7.90;50.40;;;;;;4970816;28;20054;-73
2022/03/10 08:45:18;;;;;;;49.33;22.05;;;7.90;50.30;;;;;;4964931;28;20034;-71
2022/03/10 08:47:45;;;;;;;65.75;22.25;;;8.00;50.30;;;;;;4956644;28;20034;-72
2022/03/10 08:50:11;;;;;;;46.25;20.73;;;8.10;50.20;;;;;;4957920;28;20039;-72
2022/03/10 08:52:38;;;;;;;49.88;19.85;;;8.20;50.10;;;;;;4956653;28;20027;-72
2022/03/10 08:55:05;;;;;;;46.28;20.67;;;8.20;49.80;;;;;;4971748;28;20031;-73
2022/03/10 08:57:34;;;;;;;44.42;19.10;;;8.30;49.80;;;;;;4957023;28;20047;-73
2022/03/10 09:00:00;;;;;;;45.13;19.23;;;8.40;49.70;;;;;;4955735;28;20114;-72
2022/03/10 09:02:26;;;;;;;50.47;18.17;;;8.50;49.50;;;;;;4959710;28;20118;-72
2022/03/10 09:04:52;;;;;;;30.77;15.48;;;8.60;49.20;;;;;;4975262;28;20030;-71
2022/03/10 09:07:17;;;;;;;28.60;13.57;;;8.60;48.50;;;;;;4971027;28;20042;-72
2022/03/10 09:09:43;;;;;;;26.48;13.10;;;8.70;48.20;;;;;;4955706;28;20031;-73
2022/03/10 09:12:09;;;;;;;36.28;13.95;;;8.80;48.10;;;;;;4956619;29;20031;-70
2022/03/10 09:14:35;;;;;;;34.60;14.57;;;8.90;47.90;;;;;;4968080;28;20465;-72
2022/03/10 09:17:01;;;;;;;28.83;13.10;;;8.90;47.80;;;;;;4965831;28;20401;-72
2022/03/10 09:19:27;;;;;;;35.13;13.98;;;9.10;47.70;;;;;;4948990;28;20492;-71
2022/03/10 09:21:53;;;;;;;31.80;12.93;;;9.10;47.30;;;;;;4974459;28;20035;-71
2022/03/10 09:24:18;;;;;;;25.27;13.02;;;9.20;47.00;;;;;;4965012;28;20389;-73
2022/03/10 09:26:44;;;;;;;27.75;12.70;;;9.30;46.50;;;;;;4969960;28;20027;-72
2022/03/10 09:29:11;;;;;;;34.83;12.82;;;9.30;46.50;;;;;;4955195;29;20095;-72
2022/03/10 09:31:40;;;;;;;31.38;12.02;;;9.40;46.40;;;;;;4958097;28;20470;-73
2022/03/10 09:34:07;;;;;;;28.48;12.15;;;9.50;46.30;;;;;;4962749;28;20038;-71
2022/03/10 09:36:33;;;;;;;30.25;12.90;;;9.60;46.00;;;;;;4955601;28;20035;-72
2022/03/10 09:38:59;;;;;;;24.50;12.45;;;9.70;46.00;;;;;;4959976;28;20433;-70
2022/03/10 09:41:28;;;;;;;33.72;12.07;;;9.90;45.90;;;;;;4964615;28;20441;-72
2022/03/10 09:43:54;;;;;;;20.30;9.52;;;9.90;45.30;;;;;;4973367;28;20023;-73
2022/03/10 09:46:21;;;;;;;27.00;11.52;;;10.00;45.00;;;;;;4963151;28;20023;-73
2022/03/10 09:48:47;;;;;;;24.75;9.93;;;10.00;44.30;;;;;;4966587;28;20477;-72
2022/03/10 09:51:14;;;;;;;24.10;11.05;;;10.10;43.90;;;;;;4956194;28;20042;-71
2022/03/10 09:53:41;;;;;;;24.20;9.82;;;10.20;43.30;;;;;;4956245;29;20147;-73
2022/03/10 09:56:07;;;;;;;20.33;10.10;;;10.30;43.00;;;;;;4955689;28;20027;-72
2022/03/10 09:58:33;;;;;;;22.52;9.35;;;10.40;42.90;;;;;;4953191;28;20412;-72
2022/03/10 10:01:06;;;;;;;16.90;7.65;;;10.50;42.90;;;;;;4974654;28;20034;-71
2022/03/10 10:03:33;;;;;;;17.63;9.03;;;10.60;42.30;;;;;;4960040;28;20054;-74
2022/03/10 10:06:00;;;;;;;16.27;8.27;;;10.70;41.60;;;;;;4955981;28;20541;-72
2022/03/10 10:08:27;;;;;;;14.65;8.10;;;10.70;41.30;;;;;;4954494;28;20050;-72
2022/03/10 10:10:56;;;;;;;15.50;8.45;;;10.80;41.10;;;;;;4953931;29;20031;-72
2022/03/10 10:13:38;;;;;;;25.83;9.73;;;10.90;40.60;;;;;;4955382;28;20031;-72
2022/03/10 10:16:06;;;;;;;17.75;9.38;;;10.90;39.70;;;;;;4952088;28;20054;-71
2022/03/10 10:18:34;;;;;;;15.90;8.35;;;11.00;40.00;;;;;;4955573;28;20028;-71
2022/03/10 10:20:59;;;;;;;18.25;9.05;;;11.10;40.00;;;;;;4955239;28;20448;-71
2022/03/10 10:23:34;;;;;;;17.60;8.27;;;11.20;40.30;;;;;;4970637;28;20038;-73
2022/03/10 10:26:00;;;;;;;14.25;8.25;;;11.30;40.20;;;;;;4974485;28;20041;-73
2022/03/10 10:28:37;;;;;;;15.40;8.15;;;11.30;39.60;;;;;;4963134;28;20025;-70
2022/03/10 10:31:04;;;;;;;16.90;8.38;;;11.40;39.30;;;;;;4954912;29;20027;-72
2022/03/10 10:33:33;;;;;;;15.50;7.70;;;11.50;39.20;;;;;;4959126;28;20031;-73
2022/03/10 10:36:23;;;;;;;12.00;7.38;;;11.60;39.10;;;;;;4955550;29;20074;-71
2022/03/10 10:38:49;;;;;;;12.18;6.90;;;11.60;39.10;;;;;;4973774;28;20031;-73
2022/03/10 10:41:31;;;;;;;14.23;7.03;;;11.70;38.80;;;;;;4955020;28;20027;-73
2022/03/10 10:44:02;;;;;;;12.98;7.10;;;11.80;38.00;;;;;;4955282;28;20043;-73
2022/03/10 10:46:35;;;;;;;13.68;6.10;;;11.80;37.70;;;;;;4968193;28;20041;-73
2022/03/10 10:49:05;;;;;;;16.92;8.00;;;11.90;37.80;;;;;;4959731;28;20125;-73
2022/03/10 10:51:32;;;;;;;13.90;7.03;;;12.00;38.00;;;;;;4968444;28;20019;-71
2022/03/10 10:54:00;;;;;;;13.63;7.57;;;12.00;37.90;;;;;;4952522;29;20031;-72
2022/03/10 10:56:28;;;;;;;18.70;7.03;;;12.00;37.40;;;;;;4954786;28;20109;-72
2022/03/10 10:58:54;;;;;;;13.18;6.68;;;12.10;37.30;;;;;;4958192;28;20581;-72
2022/03/10 11:01:28;;;;;;;11.68;6.30;;;12.10;37.00;;;;;;4961598;28;20037;-73
2022/03/10 11:03:53;;;;;;;21.23;7.97;;;12.20;36.00;;;;;;4954977;28;20024;-73
2022/03/10 11:06:21;;;;;;;15.82;8.38;;;12.20;35.70;;;;;;4953539;28;20544;-74
2022/03/10 11:08:47;;;;;;;14.52;7.53;;;12.20;35.80;;;;;;4955289;28;20031;-71
2022/03/10 11:11:15;;;;;;;16.55;8.25;;;12.30;35.70;;;;;;4952751;29;20371;-72
2022/03/10 11:13:41;;;;;;;12.05;7.32;;;12.30;36.00;;;;;;4961322;28;20031;-72
2022/03/10 11:16:08;;;;;;;10.80;6.47;;;12.40;36.50;;;;;;4955119;28;20054;-72
2022/03/10 11:18:34;;;;;;;12.70;6.38;;;12.40;36.20;;;;;;4955080;28;20584;-74
2022/03/10 11:21:15;;;;;;;12.52;7.00;;;12.50;36.40;;;;;;4955023;28;20086;-73
2022/03/10 11:24:04;;;;;;;11.98;7.10;;;12.50;36.00;;;;;;4954952;28;20106;-72
2022/03/10 11:26:37;;;;;;;13.25;7.60;;;12.60;36.00;;;;;;4947045;28;20028;-71
2022/03/10 11:29:03;;;;;;;16.05;8.55;;;12.60;35.80;;;;;;4952769;28;20031;-73
2022/03/10 11:31:33;;;;;;;13.10;7.80;;;12.70;35.50;;;;;;4956008;28;20397;-71
2022/03/10 11:33:58;;;;;;;15.85;9.15;;;12.80;35.90;;;;;;4954309;28;20027;-73
2022/03/10 11:36:30;;;;;;;23.13;8.70;;;12.80;35.20;;;;;;4954131;28;20392;-70
2022/03/10 11:39:12;;;;;;;17.23;9.68;;;12.80;34.60;;;;;;4969645;28;20059;-73
2022/03/10 11:41:50;;;;;;;17.42;10.00;;;12.80;33.90;;;;;;4953827;29;20023;-72
2022/03/10 11:44:21;;;;;;;17.58;9.20;;;12.80;33.50;;;;;;4969538;28;20038;-72
2022/03/10 11:46:59;;;;;;;16.85;9.15;;;12.90;34.30;;;;;;4969588;28;20114;-72
2022/03/10 11:49:41;;;;;;;15.43;8.85;;;12.90;34.60;;;;;;4958603;28;20106;-74
2022/03/10 11:52:24;;;;;;;22.02;11.18;;;13.00;34.80;;;;;;4964446;28;20035;-72
2022/03/10 11:55:12;;;;;;;26.98;10.30;;;13.10;34.80;;;;;;4965975;28;20035;-71
2022/03/10 11:57:53;;;;;;;18.15;9.07;;;13.10;34.80;;;;;;4973817;28;20038;-71
2022/03/10 12:00:22;;;;;;;13.00;7.57;;;13.20;34.60;;;;;;4974342;28;20425;-73
2022/03/10 12:02:57;;;;;;;12.15;6.85;;;13.20;34.60;;;;;;4965562;28;20413;-71
2022/03/10 12:05:24;;;;;;;11.30;7.00;;;13.30;34.60;;;;;;4944150;28;20024;-72
2022/03/10 12:07:54;;;;;;;12.05;7.18;;;13.30;34.20;;;;;;4954231;28;20023;-72
2022/03/10 12:10:22;;;;;;;17.40;6.82;;;13.40;34.10;;;;;;4966247;28;20497;-71
2022/03/10 12:12:48;;;;;;;11.25;6.32;;;13.40;33.80;;;;;;4972509;28;20027;-71
2022/03/10 12:15:30;;;;;;;9.25;6.47;;;13.40;34.00;;;;;;4965748;28;20037;-74
2022/03/10 12:17:55;;;;;;;15.98;6.95;;;13.40;33.60;;;;;;4977485;28;20023;-71
2022/03/10 12:20:23;;;;;;;11.63;6.80;;;13.50;33.50;;;;;;4955384;28;20047;-73
2022/03/10 12:23:06;;;;;;;12.23;7.00;;;13.50;33.70;;;;;;4946448;28;20381;-72
2022/03/10 12:25:41;;;;;;;16.50;7.13;;;13.50;33.40;;;;;;4953449;29;20023;-73
2022/03/10 12:28:09;;;;;;;12.52;7.13;;;13.50;33.50;;;;;;4938792;29;20031;-71
2022/03/10 12:30:41;;;;;;;13.40;7.97;;;13.60;33.70;;;;;;4966932;28;20023;-73
2022/03/10 12:33:07;;;;;;;10.07;6.15;;;13.60;33.30;;;;;;4961615;28;20394;-72
2022/03/10 12:35:36;;;;;;;15.65;6.70;;;13.70;33.40;;;;;;4957291;28;20114;-73
2022/03/10 12:38:03;;;;;;;12.82;7.40;;;13.70;33.20;;;;;;4957685;28;20034;-73
2022/03/10 12:40:34;;;;;;;11.90;6.85;;;13.70;33.00;;;;;;4950972;28;20389;-71
2022/03/10 12:43:02;;;;;;;14.52;7.38;;;13.70;32.90;;;;;;4952756;29;20041;-72
2022/03/10 12:45:27;;;;;;;17.65;8.15;;;13.80;32.80;;;;;;4955059;29;20474;-72
2022/03/10 12:48:07;;;;;;;13.27;7.55;;;13.80;32.50;;;;;;4964113;28;20035;-71